Ljubljana Airport, Slovenia

2:16 AM CEST on August 21, 2014 (GMT +0200)
Ljubljana | Change Station
CLOSE
Current Station
Airport
Location: Ljubljana Airport,
Elevation: 1257 ft
Nearby Weather Stations

Elev 1257 ft 46.22 °N, 14.48 °E | Updated 16 minutes ago

Heavy Thunderstorms and Rain
Heavy Thunderstorm Rain
61 °F
Feels Like 61 °F
N
9
Wind Variable Wind from East

Today
High -- | Low -- °F
--% Chance of Precip.
Yesterday
High -- | Low -- °F
Precip. -- in
6:08 AM 8:01 PM
Waning Crescent, 18% visible
Pressure 29.92 in
Visibility 2.5 miles
Clouds Scattered Clouds 600 ft
Few 3300 ft
Overcast 4000 ft
Dew Point 59 °F
Humidity 94%
Rainfall 0.00 in
Snow Depth Not available.
UV 0 out of 12
Pollen Not available.
Air Quality Not available.
Flu Activity Not available.
METAR LJLJ 210000Z 08008KT 040V110 4000 +TSRA SCT006 FEW033CB OVC040 16/15 Q1013 NOSIG

More Conditions Fewer Conditions

Pressure 29.92 in
Visibility 2.5 miles
Clouds Scattered Clouds 600 ft
Few 3300 ft
Overcast 4000 ft
Dew Point 59 °F
Humidity 94%
Rainfall 0.00 in
Snow Depth Not available.
UV 0 out of 12
Pollen Not available.
Air Quality Not available.
Flu Activity Not available.
METAR LJLJ 210000Z 08008KT 040V110 4000 +TSRA SCT006 FEW033CB OVC040 16/15 Q1013 NOSIG

More Conditions Fewer Conditions

10-Day Weather Forecast

Almanac

Astronomy

Aug. 21, 2014 Rise Set
Actual Time 6:08 AM CEST 8:01 PM CEST
Civil Twilight 5:36 AM CEST 8:33 PM CEST
Nautical Twilight 4:56 AM CEST 9:12 PM CEST
Astronomical Twilight 4:13 AM CEST 9:55 PM CEST
Moon 2:17 AM CEST 5:23 PM CEST
Length of Visible Light 14h 57m
Length of Day
13h 52m
Tomorrow will be 3m 1s shorter.
Waning Crescent, 18% of the Moon is Illuminated
Aug 20
Waning Crescent
Aug 25
New
Sep 2
First Quarter
Sep 8
Full
Sep 15
Last Quarter

Yesterday's Extremes

Country Highs Country Lows

Community

WunderPhotos

Upload Photos

1,745,807 photos uploaded!

WunderBlogs® & News

Nearby

Snow Depth

Not available.

Earthquake Activity

City Distance Mag. Time & Date
No recent earthquake activity has been reported nearby.
Minimum magnitude displayed is 2.5.

Coastal Water Temperatures

Place Temperature
No Stations Reporting

Nearby Weather Stations